createdAt,value
2024-03-13T00:00:24.184Z,16.10
2024-03-13T00:02:52.106Z,13.43
2024-03-13T00:05:22.474Z,16.30
2024-03-13T00:07:52.140Z,23.30
2024-03-13T00:10:20.212Z,18.92
2024-03-13T00:15:15.300Z,15.63
2024-03-13T00:17:46.549Z,17.42
2024-03-13T00:20:14.311Z,16.05
2024-03-13T00:22:42.356Z,18.52
2024-03-13T00:25:13.965Z,14.10
2024-03-13T00:27:43.718Z,18.90
2024-03-13T00:30:11.644Z,19.20
2024-03-13T00:32:39.757Z,20.80
2024-03-13T00:35:08.815Z,18.92
2024-03-13T00:37:37.156Z,17.73
2024-03-13T00:42:33.800Z,14.80
2024-03-13T00:45:01.503Z,18.60
2024-03-13T00:47:31.986Z,17.25
2024-03-13T00:49:59.531Z,18.23
2024-03-13T00:52:29.269Z,14.68
2024-03-13T00:54:56.834Z,21.52
2024-03-13T00:57:24.378Z,12.82
2024-03-13T00:59:52.149Z,23.02
2024-03-13T01:02:22.273Z,14.00
2024-03-13T01:04:50.344Z,23.30
2024-03-13T01:07:18.478Z,16.15
2024-03-13T01:09:46.192Z,24.13
2024-03-13T01:12:14.962Z,15.02
2024-03-13T01:14:42.845Z,13.73
2024-03-13T01:17:11.925Z,15.32
2024-03-13T01:19:40.045Z,12.10
2024-03-13T01:22:11.952Z,11.82
2024-03-13T01:24:40.099Z,15.90
2024-03-13T01:27:07.837Z,12.57
2024-03-13T01:29:37.542Z,14.98
2024-03-13T01:32:06.394Z,13.40
2024-03-13T01:34:34.433Z,14.88
2024-03-13T01:37:21.234Z,15.38
2024-03-13T01:39:49.533Z,13.32
2024-03-13T01:42:35.582Z,14.85
2024-03-13T01:45:31.200Z,10.25
2024-03-13T01:48:20.196Z,16.75
2024-03-13T01:51:07.138Z,16.92
2024-03-13T01:53:54.361Z,11.32
2024-03-13T01:56:28.781Z,10.93
2024-03-13T01:59:04.899Z,11.23
2024-03-13T02:01:53.145Z,9.88
2024-03-13T02:04:22.149Z,14.25
2024-03-13T02:06:51.092Z,16.02
2024-03-13T02:09:19.746Z,12.70
2024-03-13T02:11:47.400Z,10.48
2024-03-13T02:14:16.758Z,10.07
2024-03-13T02:16:50.601Z,11.10
2024-03-13T02:19:19.650Z,9.38
2024-03-13T02:21:49.036Z,13.88
2024-03-13T02:24:18.509Z,9.10
2024-03-13T02:26:47.102Z,12.07
2024-03-13T02:29:15.276Z,13.95
2024-03-13T02:31:43.308Z,13.30
2024-03-13T02:36:39.141Z,17.77
2024-03-13T02:39:07.236Z,20.17
2024-03-13T02:41:35.326Z,13.07
2024-03-13T02:44:03.739Z,22.10
2024-03-13T02:46:31.617Z,15.38
2024-03-13T02:48:59.411Z,17.48
2024-03-13T02:51:27.082Z,16.88
2024-03-13T02:53:55.072Z,17.85
2024-03-13T02:56:23.137Z,18.75
2024-03-13T02:58:50.883Z,13.80
2024-03-13T03:01:18.633Z,17.88
2024-03-13T03:03:46.509Z,12.40
2024-03-13T03:06:17.502Z,16.30
2024-03-13T03:08:46.241Z,18.02
2024-03-13T03:11:14.218Z,12.88
2024-03-13T03:13:42.195Z,22.48
2024-03-13T03:16:10.741Z,22.48
2024-03-13T03:18:38.522Z,18.38
2024-03-13T03:21:09.009Z,13.75
2024-03-13T03:23:36.704Z,12.63
2024-03-13T03:26:04.583Z,16.92
2024-03-13T03:28:32.358Z,12.27
2024-03-13T03:31:03.234Z,20.67
2024-03-13T03:33:31.273Z,18.05
2024-03-13T03:35:58.979Z,27.27
2024-03-13T03:38:30.093Z,14.15
2024-03-13T03:40:57.739Z,17.23
2024-03-13T03:43:27.401Z,26.98
2024-03-13T03:45:55.979Z,12.95
2024-03-13T03:50:51.938Z,16.92
2024-03-13T03:53:20.034Z,13.98
2024-03-13T03:55:47.703Z,27.77
2024-03-13T03:58:15.576Z,12.13
2024-03-13T04:00:43.763Z,23.67
2024-03-13T04:05:41.804Z,24.60
2024-03-13T04:08:10.384Z,26.13
2024-03-13T04:10:40.705Z,18.13
2024-03-13T04:13:08.799Z,29.77
2024-03-13T04:15:36.471Z,28.75
2024-03-13T04:18:05.177Z,24.45
2024-03-13T04:20:33.075Z,21.98
2024-03-13T04:23:00.771Z,24.27
2024-03-13T04:25:28.741Z,28.70
2024-03-13T04:27:56.976Z,26.17
2024-03-13T04:30:25.393Z,27.02
2024-03-13T04:35:21.938Z,44.58
2024-03-13T04:37:51.550Z,32.47
2024-03-13T04:40:21.556Z,26.20
2024-03-13T04:42:49.340Z,30.35
2024-03-13T04:47:45.439Z,25.33
2024-03-13T04:50:13.416Z,26.25
2024-03-13T04:52:41.204Z,33.67
2024-03-13T04:55:09.004Z,28.38
2024-03-13T04:57:36.770Z,38.30
2024-03-13T05:00:05.846Z,42.97
2024-03-13T05:02:36.311Z,78.55
2024-03-13T05:05:05.601Z,64.10
2024-03-13T05:07:33.371Z,29.75
2024-03-13T05:10:01.142Z,75.45
2024-03-13T05:12:36.296Z,22.23
2024-03-13T05:15:08.429Z,33.88
2024-03-13T05:17:36.610Z,24.73
2024-03-13T05:22:41.585Z,43.08
2024-03-13T05:25:16.073Z,22.60
2024-03-13T05:27:43.802Z,44.85
2024-03-13T05:30:11.833Z,47.78
2024-03-13T05:32:39.743Z,21.45
2024-03-13T05:35:08.099Z,25.38
2024-03-13T05:37:37.039Z,37.90
2024-03-13T05:40:14.113Z,20.00
2024-03-13T05:42:43.430Z,21.85
2024-03-13T05:45:11.489Z,18.70
2024-03-13T05:50:10.048Z,17.58
2024-03-13T05:52:37.902Z,18.52
2024-03-13T05:55:06.086Z,21.30
2024-03-13T05:57:33.967Z,14.60
2024-03-13T06:00:05.434Z,17.27
2024-03-13T06:02:43.052Z,17.05
2024-03-13T06:05:11.522Z,21.73
2024-03-13T06:07:40.163Z,14.73
2024-03-13T06:10:11.898Z,22.17
2024-03-13T06:12:40.449Z,16.33
2024-03-13T06:15:08.849Z,18.17
2024-03-13T06:17:36.960Z,21.90
2024-03-13T06:22:32.808Z,12.15
2024-03-13T06:25:08.086Z,9.43
2024-03-13T06:27:37.345Z,8.80
2024-03-13T06:30:06.857Z,9.57
2024-03-13T06:32:34.575Z,24.00
2024-03-13T06:35:06.992Z,14.40
2024-03-13T06:37:35.168Z,17.60
2024-03-13T06:42:31.273Z,20.92
2024-03-13T06:44:59.048Z,18.42
2024-03-13T06:47:27.089Z,18.73
2024-03-13T06:49:55.215Z,26.83
2024-03-13T06:52:23.023Z,16.90
2024-03-13T06:54:50.563Z,13.07
2024-03-13T06:57:18.247Z,18.80
2024-03-13T06:59:46.627Z,10.57
2024-03-13T07:02:18.931Z,13.02
2024-03-13T07:04:46.529Z,12.15
2024-03-13T07:07:14.153Z,11.02
2024-03-13T07:09:43.661Z,13.35
2024-03-13T07:12:13.023Z,25.33
2024-03-13T07:14:40.901Z,10.98
2024-03-13T07:17:08.759Z,10.95
2024-03-13T07:22:05.309Z,11.02
2024-03-13T07:24:33.542Z,14.23
2024-03-13T07:29:29.307Z,10.43
2024-03-13T07:31:57.652Z,12.27
2024-03-13T07:34:25.634Z,16.48
2024-03-13T07:36:53.846Z,11.32
2024-03-13T07:39:22.640Z,11.30
2024-03-13T07:41:50.492Z,12.68
2024-03-13T07:44:18.286Z,10.15
2024-03-13T07:46:45.818Z,10.85
2024-03-13T07:49:14.980Z,10.45
2024-03-13T07:51:43.529Z,9.65
2024-03-13T07:54:11.529Z,8.43
2024-03-13T07:56:40.496Z,14.48
2024-03-13T07:59:08.155Z,15.20
2024-03-13T08:01:44.820Z,9.75
2024-03-13T08:04:13.121Z,10.00
2024-03-13T09:07:24.347Z,9.63
2024-03-13T09:09:52.175Z,11.70
2024-03-13T09:12:20.044Z,8.05
2024-03-13T09:14:47.767Z,7.88
2024-03-13T09:17:15.349Z,13.35
2024-03-13T09:19:43.122Z,9.68
2024-03-13T09:22:13.498Z,9.45
2024-03-13T09:24:43.769Z,13.98
2024-03-13T09:27:12.413Z,8.13
2024-03-13T09:29:40.243Z,12.13
2024-03-13T09:32:08.090Z,9.88
2024-03-13T09:34:39.876Z,6.63
2024-03-13T09:37:11.173Z,9.40
2024-03-13T09:39:38.983Z,6.90
2024-03-13T09:42:23.726Z,6.32
2024-03-13T09:44:52.554Z,12.30
2024-03-13T09:47:21.563Z,31.67
2024-03-13T09:49:49.697Z,10.15
2024-03-13T09:52:18.264Z,8.40
2024-03-13T09:54:47.270Z,10.02
2024-03-13T09:57:15.859Z,10.55
2024-03-13T09:59:43.649Z,9.88
2024-03-13T10:02:20.366Z,6.63
2024-03-13T10:04:50.584Z,8.57
2024-03-13T10:07:23.048Z,6.38
2024-03-13T10:09:51.135Z,10.02
2024-03-13T10:12:22.705Z,7.00
2024-03-13T10:14:52.388Z,9.73
2024-03-13T10:17:24.492Z,18.27
2024-03-13T10:19:57.006Z,15.57
2024-03-13T10:22:27.423Z,6.85
2024-03-13T10:24:58.866Z,10.73
2024-03-13T10:27:26.798Z,8.98
2024-03-13T10:29:55.378Z,9.02
2024-03-13T10:41:48.106Z,5.50
2024-03-13T10:44:15.999Z,6.35
2024-03-13T10:46:43.779Z,19.73
2024-03-13T10:49:17.927Z,8.05
2024-03-13T10:51:45.829Z,4.38
2024-03-13T10:54:13.974Z,6.70
2024-03-13T10:56:41.624Z,6.80
2024-03-13T10:59:11.228Z,24.40
2024-03-13T11:01:39.253Z,7.55
2024-03-13T11:06:34.655Z,14.55
2024-03-13T11:09:05.564Z,18.98
2024-03-13T11:11:36.909Z,8.55
2024-03-13T11:14:05.070Z,8.65
2024-03-13T11:16:34.834Z,9.18
2024-03-13T11:19:05.196Z,11.05
2024-03-13T11:22:01.355Z,6.53
2024-03-13T11:24:34.025Z,8.25
2024-03-13T11:27:10.151Z,8.10
2024-03-13T11:29:45.655Z,6.88
2024-03-13T11:32:15.264Z,16.98
2024-03-13T11:34:43.922Z,10.20
2024-03-13T11:37:13.312Z,6.50
2024-03-13T11:39:43.916Z,7.05
2024-03-13T11:42:16.321Z,7.60
2024-03-13T11:44:47.496Z,7.20
2024-03-13T11:47:17.994Z,17.05
2024-03-13T11:49:45.793Z,15.23
2024-03-13T11:52:16.998Z,7.13
2024-03-13T11:54:45.750Z,8.57
2024-03-13T11:57:15.620Z,7.55
2024-03-13T11:59:45.683Z,7.35
2024-03-13T12:02:37.041Z,9.13
2024-03-13T12:05:09.581Z,8.95
2024-03-13T12:07:45.007Z,8.00
2024-03-13T12:10:19.059Z,10.60
2024-03-13T12:12:48.349Z,14.75
2024-03-13T12:15:20.628Z,12.65
2024-03-13T12:17:52.228Z,9.38
2024-03-13T12:20:23.813Z,7.65
2024-03-13T12:22:52.218Z,13.18
2024-03-13T12:25:21.402Z,7.55
2024-03-13T12:27:54.169Z,6.38
2024-03-13T12:30:23.049Z,6.10
2024-03-13T12:33:00.191Z,11.25
2024-03-13T12:35:28.051Z,7.57
2024-03-13T12:40:28.025Z,6.68
2024-03-13T12:42:56.089Z,7.20
2024-03-13T12:45:23.875Z,11.10
2024-03-13T12:47:51.642Z,9.27
2024-03-13T12:50:20.151Z,12.40
2024-03-13T12:52:48.166Z,7.47
2024-03-13T12:55:21.708Z,10.68
2024-03-13T12:57:50.153Z,7.50
2024-03-13T13:00:22.067Z,6.55
2024-03-13T13:02:53.422Z,9.20
2024-03-13T13:05:22.601Z,8.23
2024-03-13T13:07:54.020Z,11.38
2024-03-13T13:10:31.770Z,15.50
2024-03-13T13:13:00.877Z,8.38
2024-03-13T13:15:28.825Z,12.52
2024-03-13T13:17:56.906Z,11.98
2024-03-13T13:20:25.038Z,19.45
2024-03-13T13:22:54.222Z,8.27
2024-03-13T13:25:28.220Z,10.32
2024-03-13T13:30:26.583Z,13.07
2024-03-13T13:32:56.197Z,10.30
2024-03-13T13:35:25.300Z,9.25
2024-03-13T13:37:54.302Z,10.65
2024-03-13T13:40:22.401Z,8.23
2024-03-13T13:45:24.867Z,22.73
2024-03-13T13:47:55.127Z,7.40
2024-03-13T13:50:23.596Z,9.38
2024-03-13T13:52:51.332Z,9.60
2024-03-13T13:55:19.511Z,11.05
2024-03-13T13:57:52.312Z,8.68
2024-03-13T14:00:24.807Z,15.35
2024-03-13T14:02:57.053Z,11.77
2024-03-13T14:05:28.714Z,19.67
2024-03-13T14:08:00.198Z,8.40
2024-03-13T14:10:27.959Z,11.13
2024-03-13T14:12:58.604Z,12.23
2024-03-13T14:15:26.475Z,12.18
2024-03-13T14:17:54.921Z,11.35
2024-03-13T14:20:23.468Z,9.80
2024-03-13T14:22:56.384Z,12.95
2024-03-13T14:25:28.225Z,7.53
2024-03-13T14:27:56.904Z,10.55
2024-03-13T14:30:25.071Z,49.63
2024-03-13T14:32:53.585Z,8.60
2024-03-13T14:35:22.813Z,11.30
2024-03-13T14:37:51.486Z,12.27
2024-03-13T14:40:22.508Z,13.15
2024-03-13T14:42:50.713Z,17.05
2024-03-13T14:45:20.122Z,11.52
2024-03-13T14:47:48.674Z,17.17
2024-03-13T14:50:21.445Z,14.75
2024-03-13T14:53:03.105Z,22.33
2024-03-13T14:55:34.658Z,15.15
2024-03-13T14:58:03.008Z,20.63
2024-03-13T15:00:31.060Z,14.55
2024-03-13T15:03:00.154Z,30.23
2024-03-13T15:05:32.073Z,16.45
2024-03-13T15:08:02.687Z,16.13
2024-03-13T15:11:45.514Z,40.50
2024-03-13T15:14:41.191Z,44.45
2024-03-13T15:17:11.676Z,24.17
2024-03-13T15:19:44.182Z,27.65
2024-03-13T15:22:38.831Z,17.65
2024-03-13T15:25:08.089Z,13.45
2024-03-13T15:27:36.172Z,17.88
2024-03-13T15:30:04.942Z,16.58
2024-03-13T15:32:33.450Z,14.18
2024-03-13T15:35:08.804Z,21.00
2024-03-13T15:37:36.824Z,13.48
2024-03-13T15:42:41.729Z,27.90
2024-03-13T15:45:11.977Z,16.65
2024-03-13T15:47:42.143Z,15.98
2024-03-13T15:50:20.329Z,24.55
2024-03-13T15:52:56.156Z,24.23
2024-03-13T15:55:23.851Z,24.42
2024-03-13T15:57:51.472Z,21.15
2024-03-13T16:00:24.759Z,20.73
2024-03-13T16:02:58.878Z,25.45
2024-03-13T16:05:28.841Z,28.88
2024-03-13T16:08:02.413Z,23.98
2024-03-13T16:10:30.195Z,23.70
2024-03-13T16:12:58.567Z,17.02
2024-03-13T16:15:28.293Z,23.13
2024-03-13T16:17:59.769Z,20.65
2024-03-13T16:20:27.576Z,20.45
2024-03-13T16:22:55.594Z,18.83
2024-03-13T16:25:23.530Z,18.90
2024-03-13T16:27:52.367Z,23.77
2024-03-13T16:30:20.996Z,27.08
2024-03-13T16:32:50.016Z,16.23
2024-03-13T16:35:18.350Z,19.58
2024-03-13T16:37:47.323Z,29.65
2024-03-13T16:40:19.491Z,38.50
2024-03-13T16:42:47.603Z,26.65
2024-03-13T16:45:19.721Z,26.10
2024-03-13T16:47:48.720Z,21.35
2024-03-13T16:50:17.654Z,20.50
2024-03-13T16:52:45.910Z,39.28
2024-03-13T16:55:14.202Z,27.77
2024-03-13T16:57:44.096Z,31.92
2024-03-13T17:00:17.127Z,23.25
2024-03-13T17:02:48.358Z,40.72
2024-03-13T17:05:17.918Z,33.88
2024-03-13T17:07:48.833Z,80.75
2024-03-13T17:10:20.386Z,42.35
2024-03-13T17:12:47.932Z,40.47
2024-03-13T17:15:16.003Z,48.35
2024-03-13T17:17:43.919Z,33.50
2024-03-13T17:20:11.805Z,30.27
2024-03-13T17:22:39.616Z,36.40
2024-03-13T17:25:07.541Z,36.83
2024-03-13T17:27:35.034Z,45.55
2024-03-13T17:30:03.148Z,44.05
2024-03-13T17:32:32.994Z,38.28
2024-03-13T17:37:30.897Z,40.83
2024-03-13T17:39:59.056Z,48.55
2024-03-13T17:42:27.344Z,41.70
2024-03-13T17:44:58.209Z,52.85
2024-03-13T17:47:26.160Z,55.95
2024-03-13T17:49:54.200Z,72.07
2024-03-13T17:52:22.124Z,63.47
2024-03-13T17:54:53.693Z,66.95
2024-03-13T17:57:21.722Z,57.30
2024-03-13T17:59:49.779Z,50.08
2024-03-13T18:02:20.264Z,64.60
2024-03-13T18:04:48.148Z,59.83
2024-03-13T18:07:16.622Z,61.58
2024-03-13T18:09:44.371Z,61.08
2024-03-13T18:12:12.196Z,64.85
2024-03-13T18:14:39.873Z,56.83
2024-03-13T18:17:07.598Z,71.88
2024-03-13T18:19:35.660Z,70.60
2024-03-13T18:24:31.248Z,86.28
2024-03-13T18:26:59.016Z,100.22
2024-03-13T18:29:26.574Z,64.90
2024-03-13T18:31:54.695Z,81.25
2024-03-13T18:34:22.419Z,114.35
2024-03-13T18:36:50.575Z,117.18
2024-03-13T18:39:19.705Z,102.25
2024-03-13T18:41:47.687Z,88.32
2024-03-13T18:44:15.463Z,68.82
2024-03-13T18:46:43.249Z,73.68
2024-03-13T18:51:39.824Z,68.68
2024-03-13T18:54:07.761Z,79.78
2024-03-13T18:56:36.918Z,72.75
2024-03-13T18:59:05.912Z,78.10
2024-03-13T19:01:34.577Z,83.40
2024-03-13T19:04:02.345Z,92.65
2024-03-13T19:06:29.990Z,85.28
2024-03-13T19:08:57.783Z,91.18
2024-03-13T19:11:26.029Z,80.90
2024-03-13T19:13:54.783Z,72.00
2024-03-13T19:16:22.177Z,86.22
2024-03-13T19:18:53.586Z,86.05
2024-03-13T19:21:25.163Z,81.57
2024-03-13T19:23:54.044Z,74.68
2024-03-13T19:26:23.484Z,71.95
2024-03-13T19:28:53.934Z,71.80
2024-03-13T19:31:27.143Z,73.38
2024-03-13T19:34:02.176Z,63.25
2024-03-13T19:36:29.809Z,89.30
2024-03-13T19:38:59.433Z,58.05
2024-03-13T19:41:27.316Z,58.28
2024-03-13T19:43:55.790Z,73.20
2024-03-13T19:46:23.385Z,63.50
2024-03-13T19:48:51.011Z,55.47
2024-03-13T19:51:18.605Z,53.22
2024-03-13T19:53:46.199Z,46.30
2024-03-13T19:56:14.510Z,36.45
2024-03-13T20:01:09.525Z,25.63
2024-03-13T20:03:38.644Z,29.88
2024-03-13T20:06:06.656Z,20.05
2024-03-13T20:08:36.417Z,22.05
2024-03-13T20:11:07.040Z,19.85
2024-03-13T20:13:35.082Z,21.55
2024-03-13T20:16:03.683Z,24.50
2024-03-13T20:18:31.270Z,26.10
2024-03-13T20:21:00.246Z,38.35
2024-03-13T20:23:28.359Z,25.35
2024-03-13T20:25:55.921Z,25.75
2024-03-13T20:28:23.466Z,27.38
2024-03-13T20:30:51.061Z,21.77
2024-03-13T20:33:19.584Z,22.55
2024-03-13T20:35:51.223Z,25.65
2024-03-13T20:38:18.942Z,18.10
2024-03-13T20:40:46.449Z,21.65
2024-03-13T20:43:13.882Z,18.45
2024-03-13T20:45:41.478Z,27.10
2024-03-13T20:48:11.697Z,18.25
2024-03-13T20:50:39.354Z,26.65
2024-03-13T20:53:07.449Z,17.25
2024-03-13T20:55:35.031Z,25.92
2024-03-13T20:58:02.786Z,19.48
2024-03-13T21:00:32.023Z,28.40
2024-03-13T21:02:59.904Z,20.63
2024-03-13T21:05:30.094Z,22.13
2024-03-13T21:07:59.901Z,25.83
2024-03-13T21:10:27.641Z,20.35
2024-03-13T21:12:55.934Z,18.50
2024-03-13T21:15:24.607Z,20.33
2024-03-13T21:17:52.049Z,20.95
2024-03-13T21:20:21.336Z,19.23
2024-03-13T21:22:48.894Z,21.98
2024-03-13T21:25:16.645Z,23.20
2024-03-13T21:27:45.732Z,20.40
2024-03-13T21:30:16.514Z,20.35
2024-03-13T21:32:44.467Z,19.60
2024-03-13T21:37:48.420Z,20.75
2024-03-13T21:40:19.176Z,22.02
2024-03-13T21:42:47.187Z,18.67
2024-03-13T21:45:15.212Z,19.75
2024-03-13T21:47:46.223Z,23.33
2024-03-13T21:50:15.769Z,29.20
2024-03-13T21:52:43.521Z,22.15
2024-03-13T21:55:11.300Z,19.67
2024-03-13T21:57:43.797Z,21.45
2024-03-13T22:00:12.137Z,21.73
2024-03-13T22:05:08.359Z,21.95
2024-03-13T22:10:05.134Z,19.13
2024-03-13T22:12:33.280Z,17.42
2024-03-13T22:15:06.747Z,19.25
2024-03-13T22:17:34.714Z,22.40
2024-03-13T22:20:02.501Z,20.88
2024-03-13T22:22:31.713Z,20.25
2024-03-13T22:24:59.276Z,20.05
2024-03-13T22:29:55.411Z,19.88
2024-03-13T22:32:23.252Z,18.10
2024-03-13T22:34:50.971Z,20.73
2024-03-13T22:37:18.808Z,17.52
2024-03-13T22:39:46.429Z,21.00
2024-03-13T22:42:14.096Z,18.33
2024-03-13T22:44:41.832Z,19.67
2024-03-13T22:47:09.577Z,18.23
2024-03-13T22:49:37.462Z,19.30
2024-03-13T22:52:05.430Z,22.38
2024-03-13T22:54:34.188Z,19.10
2024-03-13T22:57:01.960Z,17.30
2024-03-13T22:59:30.064Z,21.83
2024-03-13T23:01:58.657Z,16.65
2024-03-13T23:04:26.352Z,19.13
2024-03-13T23:06:53.870Z,20.20
2024-03-13T23:09:21.582Z,17.00
2024-03-13T23:11:51.982Z,21.52
2024-03-13T23:14:21.046Z,18.85
2024-03-13T23:16:48.666Z,18.15
2024-03-13T23:19:16.434Z,19.52
2024-03-13T23:21:44.292Z,20.45
2024-03-13T23:24:12.035Z,19.55
2024-03-13T23:26:42.094Z,17.88
2024-03-13T23:29:10.047Z,18.55
2024-03-13T23:31:43.241Z,17.48
2024-03-13T23:34:14.825Z,19.60
2024-03-13T23:36:43.641Z,17.13
2024-03-13T23:39:12.010Z,17.77
2024-03-13T23:41:42.326Z,17.95
2024-03-13T23:44:10.573Z,19.20
2024-03-13T23:46:39.904Z,22.13
2024-03-13T23:49:08.399Z,23.27
2024-03-13T23:51:38.793Z,23.75
2024-03-13T23:54:07.370Z,20.13
2024-03-13T23:56:35.071Z,16.98
2024-03-13T23:59:04.526Z,18.50
